Maldives Meteorological Service

METAR

Station
VRMM
METAR VRMM 181400Z 24005KT 9999 SCT018TCU 29/25 Q1010 TEMPO 5000 -SHRA=
VRMH
METAR VRMH 181500Z 30006KT 9999 FEW018TCU BKN270 29/25 Q1010=
VRMK
METAR VRMK 181500Z 15008KT 9000 –RA FEW017 FEW018CB SCT120 BKN260 26/24 Q1011 CB SSW,WSW=
VRMT
METAR VRMT 181500Z 16004KT 9999 FEW018 FEW019CB BKN270 28/26 Q1011 CB NNW=
VRMG
METAR VRMG 181500Z 16008KT 9999 FEW018TCU SCT270 27/24 Q1011 TEMPO FEW018CB=
Last Updated : 2019-09-18 20:01:51

SPECI

Station
VRMM
VRMH
VRMK
VRMT
VRMG
Last Updated : 2019-09-18 20:01:51